createdAt,value
2022-11-25T20:16:40.146Z,2.09
2022-11-25T20:19:02.120Z,2.08
2022-11-25T20:20:33.343Z,2.06
2022-11-25T20:21:54.258Z,2.02
2022-11-25T20:23:25.728Z,2.05
2022-11-25T20:24:47.141Z,2.19
2022-11-25T20:26:24.633Z,2.07
2022-11-25T20:27:45.502Z,2.05
2022-11-25T20:29:19.130Z,2.09
2022-11-25T20:30:39.921Z,2.08
2022-11-25T20:32:25.999Z,2.10
2022-11-25T20:33:48.458Z,2.20
2022-11-25T20:35:11.144Z,2.16
2022-11-25T20:36:33.450Z,2.05
2022-11-25T20:37:54.829Z,2.07
2022-11-25T20:39:19.165Z,2.02
2022-11-25T20:40:42.413Z,1.98
2022-11-25T20:42:03.702Z,1.95
2022-11-25T20:43:39.104Z,1.95
2022-11-25T20:44:59.985Z,2.01
2022-11-25T20:46:23.961Z,1.99
2022-11-25T20:47:45.994Z,2.00
2022-11-25T20:49:21.663Z,1.97
2022-11-25T20:50:43.079Z,1.95
2022-11-25T20:52:05.320Z,1.90
2022-11-25T20:53:28.095Z,1.89
2022-11-25T20:54:49.362Z,2.23
2022-11-25T20:56:23.982Z,2.45
2022-11-25T20:57:45.073Z,2.61
2022-11-25T20:59:18.425Z,2.75
2022-11-25T21:00:39.340Z,2.86
2022-11-25T21:02:00.435Z,2.92
2022-11-25T21:03:22.039Z,2.96
2022-11-25T21:04:43.709Z,2.98
2022-11-25T21:06:21.332Z,2.98
2022-11-25T21:07:44.445Z,3.02
2022-11-25T21:09:07.281Z,2.97
2022-11-25T21:10:34.872Z,3.02
2022-11-25T21:11:56.304Z,3.02
2022-11-25T21:13:21.450Z,3.03
2022-11-25T21:14:42.413Z,3.06
2022-11-25T21:16:03.235Z,3.06
2022-11-25T21:17:24.336Z,3.01
2022-11-25T21:18:45.669Z,3.06
2022-11-25T21:20:08.398Z,3.06
2022-11-25T21:21:33.219Z,3.06
2022-11-25T21:22:58.094Z,3.06
2022-11-25T21:24:30.417Z,3.01
2022-11-25T21:25:51.545Z,2.89
2022-11-25T21:27:16.318Z,2.78
2022-11-25T21:28:41.825Z,2.82
2022-11-25T21:30:02.654Z,2.74
2022-11-25T21:31:25.931Z,2.45
2022-11-25T21:32:47.856Z,2.46
2022-11-25T21:34:14.058Z,2.44
2022-11-25T21:35:38.917Z,2.42
2022-11-25T21:37:00.329Z,2.26
2022-11-25T21:38:24.590Z,2.35
2022-11-25T21:39:45.642Z,2.37
2022-11-25T21:41:07.636Z,2.42
2022-11-25T21:42:30.234Z,2.43
2022-11-25T21:43:51.430Z,2.25
2022-11-25T21:45:16.903Z,2.49
2022-11-25T21:46:38.015Z,2.52
2022-11-25T21:47:59.269Z,2.49
2022-11-25T21:49:20.006Z,2.45
2022-11-25T21:50:41.118Z,1.92
2022-11-25T21:52:02.240Z,2.16
2022-11-25T21:53:23.897Z,2.18
2022-11-25T21:54:45.504Z,2.19
2022-11-25T21:56:18.055Z,2.10
2022-11-25T21:57:39.842Z,2.15
2022-11-25T21:59:02.891Z,2.21
2022-11-25T22:00:25.946Z,2.24
2022-11-25T22:01:48.030Z,2.20
2022-11-25T22:03:15.925Z,2.10
2022-11-25T22:04:37.330Z,2.19
2022-11-25T22:05:58.300Z,2.19
2022-11-25T22:07:19.485Z,2.05
2022-11-25T22:08:40.717Z,2.07
2022-11-25T22:10:01.958Z,2.11
2022-11-25T22:11:31.964Z,2.12
2022-11-25T22:12:53.016Z,2.11
2022-11-25T22:14:25.382Z,2.14
2022-11-25T22:15:47.535Z,2.13
2022-11-25T22:17:16.937Z,2.15
2022-11-25T22:18:40.445Z,2.16
2022-11-25T22:20:01.890Z,2.20
2022-11-25T22:21:23.187Z,2.24
2022-11-25T22:22:44.001Z,2.25
2022-11-25T22:24:14.428Z,2.24
2022-11-25T22:25:35.594Z,2.22
2022-11-25T22:26:58.295Z,2.26
2022-11-25T22:28:26.157Z,2.27
2022-11-25T22:29:47.975Z,2.29
2022-11-25T22:31:19.373Z,2.29
2022-11-25T22:32:40.820Z,2.29
2022-11-25T22:34:01.865Z,2.30
2022-11-25T22:35:23.030Z,2.26
2022-11-25T22:36:44.095Z,2.29
2022-11-25T22:38:15.929Z,2.26
2022-11-25T22:39:36.837Z,2.29
2022-11-25T22:41:03.972Z,2.23
2022-11-25T22:42:28.617Z,2.21
2022-11-25T22:43:52.481Z,2.21
2022-11-25T22:45:33.862Z,2.22
2022-11-25T22:46:55.361Z,2.10
2022-11-25T22:48:20.606Z,1.76
2022-11-25T22:49:47.299Z,1.84
2022-11-25T22:51:16.558Z,1.62
2022-11-25T22:52:37.473Z,1.70
2022-11-25T22:53:58.701Z,1.61
2022-11-25T22:55:28.444Z,1.57
2022-11-25T22:56:49.670Z,1.59
2022-11-25T22:58:12.860Z,1.58
2022-11-25T22:59:33.850Z,1.57
2022-11-25T23:00:56.930Z,1.58
2022-11-25T23:02:32.617Z,1.43
2022-11-25T23:03:54.007Z,1.47
2022-11-25T23:05:32.615Z,1.51
2022-11-25T23:06:56.147Z,1.52
2022-11-25T23:08:26.231Z,1.57
2022-11-25T23:09:47.335Z,1.57
2022-11-25T23:11:17.740Z,1.60
2022-11-25T23:12:40.244Z,1.62
2022-11-25T23:14:00.965Z,1.63
2022-11-25T23:15:24.093Z,1.66
2022-11-25T23:16:45.742Z,1.64
2022-11-25T23:18:13.880Z,1.67
2022-11-25T23:19:34.837Z,1.68
2022-11-25T23:20:56.115Z,1.69
2022-11-25T23:22:17.941Z,1.60
2022-11-25T23:23:39.238Z,1.66
2022-11-25T23:25:00.135Z,1.22
2022-11-25T23:26:21.406Z,1.02
2022-11-25T23:27:42.824Z,0.83
2022-11-25T23:29:04.196Z,0.76
2022-11-25T23:30:25.104Z,0.78
2022-11-25T23:31:46.773Z,0.76
2022-11-25T23:33:18.280Z,0.78
2022-11-25T23:34:39.695Z,0.60
2022-11-25T23:36:06.201Z,0.75
2022-11-25T23:37:29.848Z,0.67
2022-11-25T23:38:54.906Z,0.69
2022-11-25T23:40:21.029Z,0.56
2022-11-25T23:41:41.935Z,0.66
2022-11-25T23:43:03.138Z,0.71
2022-11-25T23:44:31.816Z,0.82
2022-11-25T23:45:55.681Z,0.84
2022-11-25T23:47:20.689Z,0.73
2022-11-25T23:48:43.811Z,0.81
2022-11-25T23:50:05.803Z,0.90
2022-11-25T23:51:28.387Z,0.95
2022-11-25T23:52:50.433Z,0.97
2022-11-25T23:54:15.481Z,0.94
2022-11-25T23:55:38.757Z,0.84
2022-11-25T23:57:02.099Z,0.79
2022-11-25T23:58:23.472Z,0.85
2022-11-25T23:59:45.271Z,0.94
